createdAt,value
2018-09-05T00:01:11.468Z,43.40
2018-09-05T00:03:46.073Z,44.10
2018-09-05T00:06:20.748Z,39.47
2018-09-05T00:08:55.360Z,41.90
2018-09-05T00:11:29.911Z,42.47
2018-09-05T00:14:04.492Z,45.03
2018-09-05T00:16:38.956Z,45.43
2018-09-05T00:19:13.550Z,43.00
2018-09-05T00:21:48.386Z,39.90
2018-09-05T00:24:23.008Z,41.77
2018-09-05T00:26:58.029Z,41.63
2018-09-05T00:29:32.489Z,38.70
2018-09-05T00:32:07.272Z,40.13
2018-09-05T00:34:41.920Z,38.80
2018-09-05T00:37:16.560Z,42.37
2018-09-05T00:39:51.309Z,39.43
2018-09-05T00:42:25.990Z,42.27
2018-09-05T00:45:00.640Z,38.13
2018-09-05T00:47:35.292Z,36.10
2018-09-05T00:50:10.152Z,40.83
2018-09-05T00:52:44.928Z,42.90
2018-09-05T00:55:19.547Z,36.97
2018-09-05T00:57:54.224Z,38.40
2018-09-05T01:00:28.817Z,36.63
2018-09-05T01:03:03.389Z,36.17
2018-09-05T01:05:38.096Z,36.83
2018-09-05T01:08:12.643Z,38.57
2018-09-05T01:10:47.259Z,36.70
2018-09-05T01:13:21.911Z,34.20
2018-09-05T01:15:56.532Z,35.10
2018-09-05T01:18:31.073Z,34.00
2018-09-05T01:21:06.121Z,33.00
2018-09-05T01:23:40.562Z,36.37
2018-09-05T01:26:15.256Z,34.47
2018-09-05T01:28:49.892Z,30.10
2018-09-05T01:31:24.509Z,33.03
2018-09-05T01:33:59.573Z,35.97
2018-09-05T01:36:34.098Z,33.50
2018-09-05T01:39:08.724Z,32.13
2018-09-05T01:41:43.282Z,33.40
2018-09-05T01:44:17.817Z,35.27
2018-09-05T01:46:52.549Z,32.77
2018-09-05T01:49:26.992Z,34.00
2018-09-05T01:52:01.908Z,33.00
2018-09-05T01:54:36.429Z,36.00
2018-09-05T01:57:11.257Z,31.53
2018-09-05T01:59:45.816Z,37.67
2018-09-05T02:02:20.349Z,36.70
2018-09-05T02:04:55.988Z,34.43
2018-09-05T02:07:30.424Z,34.83
2018-09-05T02:10:05.368Z,31.07
2018-09-05T02:12:40.024Z,25.23
2018-09-05T02:15:14.573Z,25.40
2018-09-05T02:17:49.084Z,28.93
2018-09-05T02:20:24.139Z,24.60
2018-09-05T02:22:58.769Z,28.70
2018-09-05T02:25:33.356Z,29.80
2018-09-05T02:28:08.240Z,28.30
2018-09-05T02:30:42.981Z,27.53
2018-09-05T02:33:17.459Z,29.53
2018-09-05T02:35:52.130Z,27.83
2018-09-05T02:38:26.788Z,27.87
2018-09-05T02:41:01.389Z,28.73
2018-09-05T02:43:41.262Z,26.90
2018-09-05T02:46:15.902Z,28.67
2018-09-05T02:48:50.465Z,30.57
2018-09-05T02:51:25.256Z,30.20
2018-09-05T02:54:01.975Z,26.87
2018-09-05T02:56:36.873Z,34.83
2018-09-05T03:02:16.004Z,28.83
2018-09-05T03:07:54.243Z,29.37
2018-09-05T03:10:28.764Z,31.67
2018-09-05T03:13:03.337Z,29.03
2018-09-05T03:15:38.064Z,30.63
2018-09-05T03:18:12.876Z,28.50
2018-09-05T03:20:47.411Z,27.30
2018-09-05T03:23:22.061Z,32.13
2018-09-05T03:26:29.373Z,28.43
2018-09-05T03:29:03.871Z,31.07
2018-09-05T03:31:38.259Z,28.77
2018-09-05T03:34:21.304Z,28.43
2018-09-05T03:36:55.987Z,27.70
2018-09-05T03:39:30.806Z,29.10
2018-09-05T03:42:08.585Z,31.53
2018-09-05T03:44:42.976Z,30.37
2018-09-05T03:47:17.664Z,30.60
2018-09-05T03:49:52.148Z,29.77
2018-09-05T03:52:26.553Z,27.30
2018-09-05T03:55:00.995Z,29.37
2018-09-05T03:57:35.390Z,29.43
2018-09-05T04:00:09.923Z,29.47
2018-09-05T04:02:44.224Z,29.57
2018-09-05T04:05:18.556Z,28.10
2018-09-05T04:07:52.904Z,32.07
2018-09-05T04:10:27.291Z,27.13
2018-09-05T04:13:01.711Z,27.77
2018-09-05T04:15:36.181Z,33.57
2018-09-05T04:18:10.644Z,28.20
2018-09-05T04:20:44.900Z,27.10
2018-09-05T04:23:19.189Z,25.80
2018-09-05T04:25:53.616Z,24.87
2018-09-05T04:28:28.007Z,27.73
2018-09-05T04:31:02.428Z,24.87
2018-09-05T04:33:36.804Z,28.83
2018-09-05T04:36:13.259Z,28.97
2018-09-05T04:38:47.752Z,27.17
2018-09-05T04:41:22.164Z,26.17
2018-09-05T04:46:56.673Z,28.50
2018-09-05T04:49:30.888Z,28.60
2018-09-05T04:52:05.124Z,30.70
2018-09-05T04:54:39.545Z,25.90
2018-09-05T04:57:13.916Z,29.00
2018-09-05T04:59:57.844Z,30.10
2018-09-05T05:02:38.655Z,27.17
2018-09-05T05:05:12.896Z,31.70
2018-09-05T05:07:47.310Z,27.30
2018-09-05T05:10:21.803Z,30.57
2018-09-05T05:12:56.296Z,24.37
2018-09-05T05:15:30.715Z,25.40
2018-09-05T05:18:05.113Z,23.77
2018-09-05T05:20:39.472Z,23.07
2018-09-05T05:23:14.035Z,25.50
2018-09-05T05:25:48.268Z,25.07
2018-09-05T05:28:22.667Z,23.10
2018-09-05T05:30:57.085Z,26.37
2018-09-05T05:33:31.440Z,21.10
2018-09-05T05:36:06.090Z,22.50
2018-09-05T05:38:40.779Z,21.50
2018-09-05T05:41:15.356Z,22.47
2018-09-05T05:43:49.851Z,21.50
2018-09-05T05:46:24.075Z,19.70
2018-09-05T05:48:58.536Z,20.67
2018-09-05T05:51:32.940Z,17.97
2018-09-05T05:54:07.813Z,17.70
2018-09-05T05:56:42.048Z,19.50
2018-09-05T05:59:16.287Z,18.67
2018-09-05T06:01:50.599Z,20.13
2018-09-05T06:04:24.952Z,16.30
2018-09-05T06:06:59.419Z,20.20
2018-09-05T06:09:34.103Z,16.27
2018-09-05T06:12:08.507Z,17.10
2018-09-05T06:14:42.891Z,17.47
2018-09-05T06:17:17.334Z,17.47
2018-09-05T06:19:52.020Z,16.20
2018-09-05T06:22:26.656Z,14.17
2018-09-05T06:25:05.019Z,16.47
2018-09-05T06:27:46.956Z,18.13
2018-09-05T06:33:20.588Z,18.67
2018-09-05T06:35:54.931Z,13.80
2018-09-05T06:38:29.332Z,15.13
2018-09-05T06:41:03.648Z,13.13
2018-09-05T06:43:38.043Z,12.30
2018-09-05T06:46:12.439Z,12.70
2018-09-05T06:48:46.658Z,13.53
2018-09-05T06:51:21.044Z,13.60
2018-09-05T06:53:56.055Z,13.70
2018-09-05T06:56:30.547Z,12.40
2018-09-05T06:59:04.900Z,12.77
2018-09-05T07:01:39.283Z,11.80
2018-09-05T07:04:14.236Z,11.03
2018-09-05T07:06:48.429Z,12.07
2018-09-05T07:09:22.841Z,12.23
2018-09-05T07:11:57.235Z,11.93
2018-09-05T07:14:31.858Z,11.60
2018-09-05T07:17:06.627Z,10.87
2018-09-05T07:19:40.845Z,11.40
2018-09-05T07:22:15.258Z,12.67
2018-09-05T07:24:49.871Z,10.77
2018-09-05T07:27:24.320Z,11.63
2018-09-05T07:29:58.811Z,11.67
2018-09-05T07:32:33.095Z,12.00
2018-09-05T07:35:07.411Z,15.90
2018-09-05T07:37:49.073Z,13.07
2018-09-05T07:40:23.440Z,15.03
2018-09-05T07:42:58.057Z,12.87
2018-09-05T07:45:32.911Z,12.43
2018-09-05T07:48:07.218Z,14.17
2018-09-05T07:50:41.510Z,13.73
2018-09-05T07:53:15.780Z,13.70
2018-09-05T07:55:50.145Z,11.97
2018-09-05T07:58:25.168Z,14.30
2018-09-05T08:00:59.469Z,14.97
2018-09-05T08:03:34.036Z,13.70
2018-09-05T08:06:08.753Z,11.57
2018-09-05T08:08:43.144Z,12.70
2018-09-05T08:11:17.772Z,16.17
2018-09-05T08:13:52.195Z,13.60
2018-09-05T08:16:26.448Z,12.90
2018-09-05T08:19:00.695Z,13.27
2018-09-05T08:21:35.040Z,12.27
2018-09-05T08:24:09.457Z,16.07
2018-09-05T08:26:44.096Z,15.30
2018-09-05T08:29:18.617Z,17.70
2018-09-05T08:31:53.057Z,14.13
2018-09-05T08:34:41.308Z,15.57
2018-09-05T08:37:15.879Z,13.70
2018-09-05T08:39:50.102Z,15.93
2018-09-05T08:42:24.671Z,13.37
2018-09-05T08:44:59.260Z,14.53
2018-09-05T08:47:33.605Z,15.07
2018-09-05T08:50:08.140Z,12.60
2018-09-05T08:52:42.495Z,16.80
2018-09-05T08:55:17.345Z,12.70
2018-09-05T08:57:51.507Z,13.83
2018-09-05T09:00:25.753Z,15.03
2018-09-05T09:03:00.451Z,14.77
2018-09-05T09:05:34.828Z,13.73
2018-09-05T09:08:09.460Z,13.43
2018-09-05T09:10:43.820Z,12.93
2018-09-05T09:13:18.276Z,13.27
2018-09-05T09:15:52.513Z,17.60
2018-09-05T09:18:26.908Z,16.53
2018-09-05T09:21:01.211Z,16.50
2018-09-05T09:23:35.631Z,16.23
2018-09-05T09:26:10.404Z,17.23
2018-09-05T09:28:44.720Z,18.53
2018-09-05T09:31:18.939Z,13.80
2018-09-05T09:33:53.255Z,17.60
2018-09-05T09:36:27.789Z,17.30
2018-09-05T09:39:02.048Z,17.37
2018-09-05T09:41:36.552Z,16.83
2018-09-05T09:44:11.874Z,20.33
2018-09-05T09:46:52.823Z,18.60
2018-09-05T09:49:27.657Z,19.83
2018-09-05T09:52:15.157Z,18.30
2018-09-05T09:54:50.964Z,16.33
2018-09-05T09:57:33.183Z,19.43
2018-09-05T10:00:08.084Z,19.23
2018-09-05T10:03:06.572Z,20.60
2018-09-05T10:05:47.020Z,18.03
2018-09-05T10:08:26.820Z,18.90
2018-09-05T10:11:05.813Z,21.87
2018-09-05T10:13:45.625Z,21.27
2018-09-05T10:16:25.550Z,17.80
2018-09-05T10:19:00.174Z,17.60
2018-09-05T10:21:34.660Z,21.03
2018-09-05T10:24:08.979Z,22.53
2018-09-05T10:26:43.844Z,20.33
2018-09-05T10:29:18.900Z,19.10
2018-09-05T10:31:53.403Z,18.13
2018-09-05T10:34:27.653Z,18.30
2018-09-05T10:37:02.555Z,17.77
2018-09-05T10:39:36.812Z,18.53
2018-09-05T10:42:11.212Z,19.57
2018-09-05T10:44:46.071Z,19.00
2018-09-05T10:47:22.107Z,19.93
2018-09-05T10:52:55.438Z,21.70
2018-09-05T10:55:29.860Z,18.63
2018-09-05T10:58:04.559Z,22.07
2018-09-05T11:00:38.899Z,17.83
2018-09-05T11:03:13.307Z,16.00
2018-09-05T11:05:47.895Z,15.40
2018-09-05T11:08:22.287Z,14.93
2018-09-05T11:10:57.036Z,16.73
2018-09-05T11:13:31.379Z,19.63
2018-09-05T11:16:05.806Z,17.43
2018-09-05T11:18:40.147Z,15.20
2018-09-05T11:21:14.411Z,15.20
2018-09-05T11:23:48.815Z,16.13
2018-09-05T11:26:23.235Z,16.20
2018-09-05T11:28:58.320Z,15.20
2018-09-05T11:31:32.464Z,14.50
2018-09-05T11:34:07.108Z,16.20
2018-09-05T11:36:41.543Z,16.57
2018-09-05T11:39:15.910Z,13.37
2018-09-05T11:41:50.479Z,13.10
2018-09-05T11:44:24.856Z,10.63
2018-09-05T11:46:59.352Z,11.40
2018-09-05T11:49:35.516Z,15.57
2018-09-05T11:52:10.380Z,11.37
2018-09-05T11:54:44.775Z,10.33
2018-09-05T11:57:19.257Z,14.13
2018-09-05T11:59:53.915Z,11.83
2018-09-05T12:02:28.307Z,12.20
2018-09-05T12:05:02.579Z,12.97
2018-09-05T12:07:36.976Z,11.50
2018-09-05T12:10:11.276Z,12.43
2018-09-05T12:12:45.627Z,9.37
2018-09-05T12:15:19.921Z,10.43
2018-09-05T12:17:54.574Z,13.43
2018-09-05T12:20:28.759Z,10.93
2018-09-05T12:23:03.203Z,10.90
2018-09-05T12:25:37.891Z,11.83
2018-09-05T12:28:12.327Z,14.37
2018-09-05T12:30:46.727Z,11.00
2018-09-05T12:33:21.107Z,10.23
2018-09-05T12:35:55.460Z,10.47
2018-09-05T12:38:31.921Z,11.90
2018-09-05T12:41:07.558Z,10.67
2018-09-05T12:43:42.129Z,13.73
2018-09-05T12:46:17.160Z,10.93
2018-09-05T12:48:57.771Z,11.63
2018-09-05T12:51:32.409Z,14.57
2018-09-05T12:54:07.541Z,10.97
2018-09-05T12:59:49.968Z,11.13
2018-09-05T13:02:24.552Z,11.50
2018-09-05T13:04:59.251Z,9.70
2018-09-05T13:07:33.889Z,11.07
2018-09-05T13:10:08.904Z,9.57
2018-09-05T13:12:45.196Z,11.50
2018-09-05T13:15:28.555Z,11.23
2018-09-05T13:18:15.116Z,10.03
2018-09-05T13:20:49.565Z,9.43
2018-09-05T13:26:35.932Z,9.93
2018-09-05T13:29:10.892Z,11.83
2018-09-05T13:31:45.670Z,10.80
2018-09-05T13:34:20.245Z,9.17
2018-09-05T13:36:54.826Z,9.73
2018-09-05T13:39:29.439Z,10.07
2018-09-05T13:42:03.946Z,11.90
2018-09-05T13:44:38.641Z,10.60
2018-09-05T13:47:13.154Z,10.20
2018-09-05T13:49:47.592Z,14.17
2018-09-05T13:52:22.027Z,9.60
2018-09-05T13:54:56.472Z,9.03
2018-09-05T13:57:31.149Z,9.80
2018-09-05T14:00:05.680Z,10.90
2018-09-05T14:02:40.090Z,11.27
2018-09-05T14:05:15.112Z,10.63
2018-09-05T14:07:49.573Z,13.20
2018-09-05T14:10:24.328Z,14.63
2018-09-05T14:12:58.789Z,11.57
2018-09-05T14:15:33.337Z,12.27
2018-09-05T14:18:07.997Z,14.60
2018-09-05T14:20:42.646Z,15.77
2018-09-05T14:23:17.248Z,15.57
2018-09-05T14:25:51.912Z,12.67
2018-09-05T14:28:26.567Z,14.63
2018-09-05T14:31:01.108Z,13.27
2018-09-05T14:33:35.540Z,14.63
2018-09-05T14:36:10.001Z,14.23
2018-09-05T14:38:45.031Z,13.47
2018-09-05T14:41:19.464Z,14.90
2018-09-05T14:43:53.901Z,13.43
2018-09-05T14:46:28.241Z,13.90
2018-09-05T14:49:02.797Z,11.47
2018-09-05T14:51:37.253Z,13.40
2018-09-05T14:54:11.727Z,17.67
2018-09-05T14:56:46.384Z,14.13
2018-09-05T14:59:21.216Z,12.93
2018-09-05T15:01:55.581Z,12.90
2018-09-05T15:04:30.179Z,11.50
2018-09-05T15:07:04.598Z,13.07
2018-09-05T15:09:39.288Z,13.23
2018-09-05T15:12:13.836Z,15.70
2018-09-05T15:14:48.320Z,12.23
2018-09-05T15:17:22.765Z,13.63
2018-09-05T15:19:57.436Z,15.80
2018-09-05T15:22:31.957Z,17.40
2018-09-05T15:25:06.813Z,14.03
2018-09-05T15:27:41.589Z,12.07
2018-09-05T15:30:16.333Z,14.03
2018-09-05T15:32:50.791Z,15.73
2018-09-05T15:35:25.440Z,13.97
2018-09-05T15:38:00.009Z,14.80
2018-09-05T15:40:34.599Z,12.00
2018-09-05T15:43:08.996Z,14.10
2018-09-05T15:45:43.494Z,14.40
2018-09-05T15:48:17.947Z,15.60
2018-09-05T15:50:52.384Z,11.83
2018-09-05T15:53:27.228Z,14.60
2018-09-05T15:56:01.677Z,14.83
2018-09-05T15:58:36.593Z,13.80
2018-09-05T16:01:15.579Z,12.50
2018-09-05T16:03:54.273Z,12.27
2018-09-05T16:06:29.240Z,12.63
2018-09-05T16:09:04.249Z,12.17
2018-09-05T16:11:38.900Z,13.60
2018-09-05T16:14:14.256Z,14.13
2018-09-05T16:16:48.915Z,11.40
2018-09-05T16:19:23.541Z,15.20
2018-09-05T16:21:58.183Z,16.73
2018-09-05T16:24:32.730Z,14.27
2018-09-05T16:27:07.841Z,14.83
2018-09-05T16:29:42.237Z,14.37
2018-09-05T16:32:16.679Z,14.70
2018-09-05T16:34:51.029Z,14.47
2018-09-05T16:37:25.620Z,12.93
2018-09-05T16:40:00.266Z,12.90
2018-09-05T16:42:34.772Z,13.63
2018-09-05T16:45:09.508Z,12.40
2018-09-05T16:47:44.308Z,15.50
2018-09-05T16:50:18.964Z,12.73
2018-09-05T16:52:53.702Z,14.67
2018-09-05T16:55:28.241Z,13.50
2018-09-05T16:58:02.733Z,15.67
2018-09-05T17:00:37.985Z,13.47
2018-09-05T17:03:12.697Z,12.30
2018-09-05T17:05:47.268Z,15.47
2018-09-05T17:08:21.668Z,15.27
2018-09-05T17:10:56.327Z,12.73
2018-09-05T17:13:30.989Z,11.33
2018-09-05T17:16:06.528Z,13.50
2018-09-05T17:18:41.317Z,14.00
2018-09-05T17:21:16.104Z,14.13
2018-09-05T17:24:02.661Z,12.37
2018-09-05T17:26:37.649Z,13.73
2018-09-05T17:29:12.376Z,13.17
2018-09-05T17:31:47.001Z,11.80
2018-09-05T17:34:21.704Z,13.53
2018-09-05T17:36:56.317Z,13.73
2018-09-05T17:39:31.045Z,13.23
2018-09-05T17:42:05.776Z,13.03
2018-09-05T17:44:40.420Z,14.23
2018-09-05T17:47:15.097Z,16.73
2018-09-05T17:49:49.841Z,13.70
2018-09-05T17:52:24.344Z,15.17
2018-09-05T17:54:58.881Z,15.33
2018-09-05T17:57:33.348Z,12.13
2018-09-05T18:00:08.180Z,14.67
2018-09-05T18:02:42.721Z,13.73
2018-09-05T18:05:17.209Z,14.87
2018-09-05T18:07:51.828Z,15.77
2018-09-05T18:10:26.485Z,14.93
2018-09-05T18:13:01.297Z,13.37
2018-09-05T18:15:35.970Z,13.47
2018-09-05T18:18:10.392Z,13.57
2018-09-05T18:20:44.902Z,19.37
2018-09-05T18:23:19.381Z,13.23
2018-09-05T18:25:53.820Z,11.90
2018-09-05T18:28:28.446Z,13.77
2018-09-05T18:31:02.955Z,16.63
2018-09-05T18:33:37.717Z,16.30
2018-09-05T18:36:12.270Z,13.30
2018-09-05T18:38:46.909Z,21.13
2018-09-05T18:41:21.537Z,12.57
2018-09-05T18:43:56.076Z,19.97
2018-09-05T18:46:30.960Z,13.40
2018-09-05T18:49:05.546Z,11.47
2018-09-05T18:51:40.036Z,14.07
2018-09-05T18:54:14.507Z,12.93
2018-09-05T18:56:48.965Z,10.27
2018-09-05T18:59:23.442Z,12.87
2018-09-05T19:01:58.147Z,12.63
2018-09-05T19:04:32.676Z,11.33
2018-09-05T19:07:07.335Z,11.77
2018-09-05T19:09:41.985Z,12.20
2018-09-05T19:12:16.592Z,11.87
2018-09-05T19:14:51.038Z,11.33
2018-09-05T19:17:25.670Z,10.40
2018-09-05T19:20:00.252Z,8.37
2018-09-05T19:22:34.830Z,11.47
2018-09-05T19:25:09.501Z,10.77
2018-09-05T19:27:44.051Z,12.30
2018-09-05T19:30:19.145Z,11.10
2018-09-05T19:32:53.521Z,8.67
2018-09-05T19:35:28.250Z,9.33
2018-09-05T19:38:02.701Z,9.10
2018-09-05T19:40:37.456Z,8.30
2018-09-05T19:43:12.108Z,10.17
2018-09-05T19:45:46.705Z,11.27
2018-09-05T19:48:21.188Z,10.53
2018-09-05T19:50:55.801Z,9.90
2018-09-05T19:53:30.417Z,11.03
2018-09-05T19:56:04.849Z,9.20
2018-09-05T19:58:43.577Z,10.73
2018-09-05T20:01:34.029Z,12.40
2018-09-05T20:04:08.664Z,8.00
2018-09-05T20:06:43.772Z,9.03
2018-09-05T20:09:18.373Z,10.07
2018-09-05T20:11:52.920Z,10.80
2018-09-05T20:14:27.905Z,9.87
2018-09-05T20:17:02.477Z,9.80
2018-09-05T20:19:37.163Z,11.40
2018-09-05T20:22:12.260Z,11.27
2018-09-05T20:24:46.908Z,12.57
2018-09-05T20:27:21.498Z,11.90
2018-09-05T20:29:56.640Z,10.20
2018-09-05T20:32:31.013Z,10.93
2018-09-05T20:35:05.641Z,13.33
2018-09-05T20:37:40.169Z,10.57
2018-09-05T20:40:14.720Z,9.77
2018-09-05T20:42:49.312Z,11.30
2018-09-05T20:45:23.853Z,10.13
2018-09-05T20:47:58.745Z,9.73
2018-09-05T20:50:33.329Z,10.83
2018-09-05T20:53:08.271Z,12.27
2018-09-05T20:55:42.920Z,10.80
2018-09-05T20:58:18.239Z,10.00
2018-09-05T21:00:52.729Z,11.43
2018-09-05T21:03:27.361Z,9.23
2018-09-05T21:06:24.441Z,10.57
2018-09-05T21:09:00.496Z,8.17
2018-09-05T21:11:35.090Z,10.53
2018-09-05T21:14:09.853Z,11.87
2018-09-05T21:16:44.566Z,10.17
2018-09-05T21:19:19.108Z,8.03
2018-09-05T21:21:54.045Z,8.67
2018-09-05T21:24:28.549Z,9.83
2018-09-05T21:27:03.073Z,8.47
2018-09-05T21:29:38.035Z,8.63
2018-09-05T21:32:12.604Z,8.87
2018-09-05T21:34:47.188Z,8.93
2018-09-05T21:37:21.720Z,8.73
2018-09-05T21:39:56.320Z,11.27
2018-09-05T21:42:30.902Z,12.10
2018-09-05T21:45:05.953Z,8.90
2018-09-05T21:47:40.513Z,7.83
2018-09-05T21:50:15.129Z,8.13
2018-09-05T21:52:50.347Z,9.47
2018-09-05T21:55:24.869Z,10.13
2018-09-05T21:58:00.050Z,9.00
2018-09-05T22:00:34.645Z,9.57
2018-09-05T22:03:09.253Z,10.53
2018-09-05T22:05:43.818Z,10.67
2018-09-05T22:08:18.264Z,10.77
2018-09-05T22:10:52.936Z,10.73
2018-09-05T22:13:27.511Z,8.90
2018-09-05T22:16:02.161Z,10.43
2018-09-05T22:18:36.898Z,8.07
2018-09-05T22:21:11.437Z,9.63
2018-09-05T22:23:46.384Z,7.33
2018-09-05T22:26:21.242Z,14.23
2018-09-05T22:28:55.684Z,8.03
2018-09-05T22:31:30.253Z,7.40
2018-09-05T22:34:04.812Z,11.40
2018-09-05T22:36:39.397Z,9.20
2018-09-05T22:39:13.880Z,11.37
2018-09-05T22:41:48.293Z,10.20
2018-09-05T22:44:34.176Z,9.50
2018-09-05T22:47:19.976Z,9.33
2018-09-05T22:50:11.210Z,9.67
2018-09-05T22:53:04.790Z,16.43
2018-09-05T22:55:55.217Z,17.27
2018-09-05T22:58:55.669Z,19.43
2018-09-05T23:02:16.393Z,21.73
2018-09-05T23:05:59.689Z,24.37
2018-09-05T23:08:38.475Z,22.37
2018-09-05T23:11:24.374Z,29.87
2018-09-05T23:15:11.152Z,29.67
2018-09-05T23:20:14.777Z,28.63
2018-09-05T23:23:00.694Z,42.87
2018-09-05T23:25:35.141Z,44.23
2018-09-05T23:28:09.645Z,48.20
2018-09-05T23:30:44.297Z,46.33
2018-09-05T23:33:18.842Z,43.43
2018-09-05T23:35:53.738Z,45.97
2018-09-05T23:38:28.728Z,46.17
2018-09-05T23:41:03.321Z,47.37
2018-09-05T23:43:37.778Z,48.50
2018-09-05T23:46:12.439Z,42.43
2018-09-05T23:48:47.034Z,44.43
2018-09-05T23:51:21.520Z,46.47
2018-09-05T23:53:56.367Z,41.40
2018-09-05T23:56:30.950Z,44.80
2018-09-05T23:59:06.486Z,43.17
